Rosario de la Frontera, Argentina
Current Conditions -  °F | °C
As of 9:00 AM on Monday 20 Oct 2014 (Local Time) from SANT Reporting Station
Haze Haze  
Wind Chill: 63°   Ceiling: 2000
Heat Index: 63°   Visibility: 2.5mi
Dew Point: 61°   Wind: 3mph
Humidity: 94%   Direction: 230°SW
Pressure: 30.18"   Gusts: NA
Location:  25.8°S, 64.97°W
Report Text: SANT 201200Z 23003KT 4000 REDZ BR SCT008 BKN02017/16 Q1022
Loading
Personal Weather Stations






























Interactive Weather Map
Tropical Storm Tracking
New forecast layout! Learn more

10-Day Weather Forecast

Advertisements
Track Severe Weather on mobile